sensor_id;sensor_type;location;lat;lon;timestamp;P1;durP1;ratioP1;P2;durP2;ratioP2
4274;SDS011;2151;50.988;11.068;2022-10-16T00:00:57;131.73;;;15.40;;
4274;SDS011;2151;50.988;11.068;2022-10-16T00:03:23;132.90;;;17.20;;
4274;SDS011;2151;50.988;11.068;2022-10-16T00:05:58;132.57;;;17.33;;
4274;SDS011;2151;50.988;11.068;2022-10-16T00:08:24;132.17;;;17.60;;
4274;SDS011;2151;50.988;11.068;2022-10-16T00:10:51;132.10;;;17.70;;
4274;SDS011;2151;50.988;11.068;2022-10-16T00:13:17;131.47;;;16.93;;
4274;SDS011;2151;50.988;11.068;2022-10-16T00:15:45;132.03;;;18.43;;
4274;SDS011;2151;50.988;11.068;2022-10-16T00:18:12;131.77;;;18.80;;
4274;SDS011;2151;50.988;11.068;2022-10-16T00:20:40;131.57;;;18.77;;
4274;SDS011;2151;50.988;11.068;2022-10-16T00:23:06;130.87;;;18.37;;
4274;SDS011;2151;50.988;11.068;2022-10-16T00:25:33;130.87;;;18.87;;
4274;SDS011;2151;50.988;11.068;2022-10-16T00:28:00;129.20;;;18.30;;
4274;SDS011;2151;50.988;11.068;2022-10-16T00:30:26;129.80;;;17.83;;
4274;SDS011;2151;50.988;11.068;2022-10-16T00:32:54;129.40;;;17.83;;
4274;SDS011;2151;50.988;11.068;2022-10-16T00:35:20;130.17;;;18.57;;
4274;SDS011;2151;50.988;11.068;2022-10-16T00:37:46;131.07;;;19.10;;
4274;SDS011;2151;50.988;11.068;2022-10-16T00:40:13;130.10;;;18.30;;
4274;SDS011;2151;50.988;11.068;2022-10-16T00:42:39;129.87;;;18.80;;
4274;SDS011;2151;50.988;11.068;2022-10-16T00:45:07;130.57;;;19.07;;
4274;SDS011;2151;50.988;11.068;2022-10-16T00:47:42;129.10;;;18.90;;
4274;SDS011;2151;50.988;11.068;2022-10-16T00:52:50;128.50;;;17.70;;
4274;SDS011;2151;50.988;11.068;2022-10-16T00:55:17;128.57;;;17.70;;
4274;SDS011;2151;50.988;11.068;2022-10-16T00:57:44;127.77;;;16.80;;
4274;SDS011;2151;50.988;11.068;2022-10-16T01:00:16;127.50;;;15.60;;
4274;SDS011;2151;50.988;11.068;2022-10-16T01:02:43;125.53;;;13.40;;
4274;SDS011;2151;50.988;11.068;2022-10-16T01:05:10;124.77;;;13.53;;
4274;SDS011;2151;50.988;11.068;2022-10-16T01:12:45;125.60;;;12.43;;
4274;SDS011;2151;50.988;11.068;2022-10-16T01:17:48;124.90;;;11.80;;
4274;SDS011;2151;50.988;11.068;2022-10-16T01:25:16;125.87;;;11.53;;
4274;SDS011;2151;50.988;11.068;2022-10-16T01:27:45;124.50;;;11.43;;
4274;SDS011;2151;50.988;11.068;2022-10-16T01:30:17;124.40;;;10.67;;
4274;SDS011;2151;50.988;11.068;2022-10-16T01:32:52;124.13;;;10.37;;
4274;SDS011;2151;50.988;11.068;2022-10-16T01:35:22;123.93;;;9.03;;
4274;SDS011;2151;50.988;11.068;2022-10-16T01:37:58;123.53;;;8.67;;
4274;SDS011;2151;50.988;11.068;2022-10-16T01:40:26;122.87;;;7.63;;
4274;SDS011;2151;50.988;11.068;2022-10-16T01:43:36;122.47;;;7.37;;
4274;SDS011;2151;50.988;11.068;2022-10-16T01:45:44;122.57;;;6.73;;
4274;SDS011;2151;50.988;11.068;2022-10-16T01:48:12;123.20;;;6.70;;
4274;SDS011;2151;50.988;11.068;2022-10-16T01:50:40;122.03;;;6.30;;
4274;SDS011;2151;50.988;11.068;2022-10-16T01:53:08;122.43;;;6.80;;
4274;SDS011;2151;50.988;11.068;2022-10-16T01:55:36;122.17;;;6.40;;
4274;SDS011;2151;50.988;11.068;2022-10-16T01:58:05;122.00;;;6.23;;
4274;SDS011;2151;50.988;11.068;2022-10-16T02:00:32;123.33;;;6.30;;
4274;SDS011;2151;50.988;11.068;2022-10-16T02:02:59;121.60;;;6.73;;
4274;SDS011;2151;50.988;11.068;2022-10-16T02:05:31;122.53;;;6.53;;
4274;SDS011;2151;50.988;11.068;2022-10-16T02:07:58;123.17;;;6.53;;
4274;SDS011;2151;50.988;11.068;2022-10-16T02:10:29;122.17;;;6.13;;
4274;SDS011;2151;50.988;11.068;2022-10-16T02:12:59;122.97;;;6.60;;
4274;SDS011;2151;50.988;11.068;2022-10-16T02:15:27;122.67;;;6.63;;
4274;SDS011;2151;50.988;11.068;2022-10-16T02:17:53;123.27;;;6.50;;
4274;SDS011;2151;50.988;11.068;2022-10-16T02:20:21;122.97;;;6.90;;
4274;SDS011;2151;50.988;11.068;2022-10-16T02:22:49;122.57;;;6.77;;
4274;SDS011;2151;50.988;11.068;2022-10-16T02:28:00;122.77;;;6.67;;
4274;SDS011;2151;50.988;11.068;2022-10-16T02:30:35;123.00;;;6.53;;
4274;SDS011;2151;50.988;11.068;2022-10-16T02:33:03;122.27;;;6.60;;
4274;SDS011;2151;50.988;11.068;2022-10-16T02:35:31;123.07;;;6.83;;
4274;SDS011;2151;50.988;11.068;2022-10-16T02:37:57;122.80;;;6.70;;
4274;SDS011;2151;50.988;11.068;2022-10-16T02:40:24;122.40;;;6.70;;
4274;SDS011;2151;50.988;11.068;2022-10-16T02:42:52;122.67;;;6.87;;
4274;SDS011;2151;50.988;11.068;2022-10-16T02:45:18;122.87;;;6.43;;
4274;SDS011;2151;50.988;11.068;2022-10-16T02:47:45;123.27;;;6.67;;
4274;SDS011;2151;50.988;11.068;2022-10-16T02:50:12;122.67;;;6.77;;
4274;SDS011;2151;50.988;11.068;2022-10-16T02:52:38;122.57;;;6.63;;
4274;SDS011;2151;50.988;11.068;2022-10-16T02:55:06;122.57;;;6.07;;
4274;SDS011;2151;50.988;11.068;2022-10-16T02:57:32;123.07;;;6.37;;
4274;SDS011;2151;50.988;11.068;2022-10-16T02:59:59;122.27;;;6.50;;
4274;SDS011;2151;50.988;11.068;2022-10-16T03:02:25;122.97;;;6.10;;
4274;SDS011;2151;50.988;11.068;2022-10-16T03:04:51;122.70;;;6.53;;
4274;SDS011;2151;50.988;11.068;2022-10-16T03:07:17;121.70;;;6.10;;
4274;SDS011;2151;50.988;11.068;2022-10-16T03:09:44;122.57;;;6.33;;
4274;SDS011;2151;50.988;11.068;2022-10-16T03:12:10;123.50;;;6.23;;
4274;SDS011;2151;50.988;11.068;2022-10-16T03:14:38;122.50;;;6.47;;
4274;SDS011;2151;50.988;11.068;2022-10-16T03:17:05;122.00;;;5.90;;
4274;SDS011;2151;50.988;11.068;2022-10-16T03:19:32;122.00;;;5.80;;
4274;SDS011;2151;50.988;11.068;2022-10-16T03:21:58;122.77;;;5.97;;
4274;SDS011;2151;50.988;11.068;2022-10-16T03:24:25;122.07;;;6.23;;
4274;SDS011;2151;50.988;11.068;2022-10-16T03:26:51;123.47;;;6.10;;
4274;SDS011;2151;50.988;11.068;2022-10-16T03:29:18;122.37;;;6.00;;
4274;SDS011;2151;50.988;11.068;2022-10-16T03:31:44;122.57;;;6.00;;
4274;SDS011;2151;50.988;11.068;2022-10-16T03:34:10;122.57;;;5.60;;
4274;SDS011;2151;50.988;11.068;2022-10-16T03:36:37;122.10;;;5.30;;
4274;SDS011;2151;50.988;11.068;2022-10-16T03:39:03;123.07;;;6.00;;
4274;SDS011;2151;50.988;11.068;2022-10-16T03:41:30;122.20;;;5.97;;
4274;SDS011;2151;50.988;11.068;2022-10-16T03:43:56;122.33;;;5.57;;
4274;SDS011;2151;50.988;11.068;2022-10-16T03:46:22;123.00;;;6.10;;
4274;SDS011;2151;50.988;11.068;2022-10-16T03:48:49;122.00;;;5.77;;
4274;SDS011;2151;50.988;11.068;2022-10-16T03:51:15;121.97;;;5.60;;
4274;SDS011;2151;50.988;11.068;2022-10-16T03:53:42;122.00;;;5.20;;
4274;SDS011;2151;50.988;11.068;2022-10-16T03:56:08;122.23;;;5.37;;
4274;SDS011;2151;50.988;11.068;2022-10-16T03:58:34;121.77;;;5.67;;
4274;SDS011;2151;50.988;11.068;2022-10-16T04:01:01;122.27;;;5.47;;
4274;SDS011;2151;50.988;11.068;2022-10-16T04:03:27;123.30;;;5.87;;
4274;SDS011;2151;50.988;11.068;2022-10-16T04:05:53;121.93;;;5.60;;
4274;SDS011;2151;50.988;11.068;2022-10-16T04:08:20;122.70;;;5.80;;
4274;SDS011;2151;50.988;11.068;2022-10-16T04:10:46;121.80;;;5.17;;
4274;SDS011;2151;50.988;11.068;2022-10-16T04:13:12;122.23;;;5.87;;
4274;SDS011;2151;50.988;11.068;2022-10-16T04:15:39;122.50;;;5.57;;
4274;SDS011;2151;50.988;11.068;2022-10-16T04:18:05;122.50;;;5.50;;
4274;SDS011;2151;50.988;11.068;2022-10-16T04:20:32;122.77;;;5.93;;
4274;SDS011;2151;50.988;11.068;2022-10-16T04:22:58;122.07;;;5.67;;
4274;SDS011;2151;50.988;11.068;2022-10-16T04:25:25;122.43;;;5.87;;
4274;SDS011;2151;50.988;11.068;2022-10-16T04:27:54;121.67;;;5.67;;
4274;SDS011;2151;50.988;11.068;2022-10-16T04:30:21;121.87;;;5.83;;
4274;SDS011;2151;50.988;11.068;2022-10-16T04:32:51;121.87;;;5.63;;
4274;SDS011;2151;50.988;11.068;2022-10-16T04:35:18;121.97;;;5.87;;
4274;SDS011;2151;50.988;11.068;2022-10-16T04:37:45;122.17;;;5.33;;
4274;SDS011;2151;50.988;11.068;2022-10-16T04:40:12;122.07;;;5.57;;
4274;SDS011;2151;50.988;11.068;2022-10-16T04:42:38;122.83;;;5.67;;
4274;SDS011;2151;50.988;11.068;2022-10-16T04:45:05;122.13;;;5.77;;
4274;SDS011;2151;50.988;11.068;2022-10-16T04:47:32;122.47;;;5.70;;
4274;SDS011;2151;50.988;11.068;2022-10-16T04:49:58;122.63;;;5.77;;
4274;SDS011;2151;50.988;11.068;2022-10-16T04:52:27;122.27;;;6.00;;
4274;SDS011;2151;50.988;11.068;2022-10-16T04:54:53;123.10;;;6.50;;
4274;SDS011;2151;50.988;11.068;2022-10-16T04:57:20;121.07;;;5.90;;
4274;SDS011;2151;50.988;11.068;2022-10-16T04:59:46;120.57;;;5.80;;
4274;SDS011;2151;50.988;11.068;2022-10-16T05:02:12;122.20;;;5.80;;
4274;SDS011;2151;50.988;11.068;2022-10-16T05:04:39;122.07;;;5.70;;
4274;SDS011;2151;50.988;11.068;2022-10-16T05:07:05;122.07;;;5.40;;
4274;SDS011;2151;50.988;11.068;2022-10-16T05:09:31;121.50;;;5.67;;
4274;SDS011;2151;50.988;11.068;2022-10-16T05:11:58;122.07;;;5.63;;
4274;SDS011;2151;50.988;11.068;2022-10-16T05:14:24;121.97;;;5.63;;
4274;SDS011;2151;50.988;11.068;2022-10-16T05:16:51;121.50;;;5.53;;
4274;SDS011;2151;50.988;11.068;2022-10-16T05:19:17;121.97;;;5.87;;
4274;SDS011;2151;50.988;11.068;2022-10-16T05:21:53;122.90;;;5.93;;
4274;SDS011;2151;50.988;11.068;2022-10-16T05:24:20;121.50;;;5.80;;
4274;SDS011;2151;50.988;11.068;2022-10-16T05:26:46;121.97;;;5.70;;
4274;SDS011;2151;50.988;11.068;2022-10-16T05:29:12;123.03;;;5.70;;
4274;SDS011;2151;50.988;11.068;2022-10-16T05:31:39;122.00;;;5.80;;
4274;SDS011;2151;50.988;11.068;2022-10-16T05:34:05;122.70;;;5.63;;
4274;SDS011;2151;50.988;11.068;2022-10-16T05:36:32;122.40;;;5.83;;
4274;SDS011;2151;50.988;11.068;2022-10-16T05:38:59;122.93;;;5.73;;
4274;SDS011;2151;50.988;11.068;2022-10-16T05:41:25;122.77;;;5.53;;
4274;SDS011;2151;50.988;11.068;2022-10-16T05:43:52;121.70;;;5.67;;
4274;SDS011;2151;50.988;11.068;2022-10-16T05:46:19;122.50;;;5.93;;
4274;SDS011;2151;50.988;11.068;2022-10-16T05:48:45;122.17;;;5.90;;
4274;SDS011;2151;50.988;11.068;2022-10-16T05:51:12;120.67;;;5.40;;
4274;SDS011;2151;50.988;11.068;2022-10-16T05:53:39;121.20;;;5.73;;
4274;SDS011;2151;50.988;11.068;2022-10-16T05:56:06;122.07;;;6.47;;
4274;SDS011;2151;50.988;11.068;2022-10-16T05:58:36;122.17;;;6.07;;
4274;SDS011;2151;50.988;11.068;2022-10-16T06:01:07;121.70;;;5.73;;
4274;SDS011;2151;50.988;11.068;2022-10-16T06:03:34;122.00;;;6.50;;
4274;SDS011;2151;50.988;11.068;2022-10-16T06:06:07;122.37;;;6.20;;
4274;SDS011;2151;50.988;11.068;2022-10-16T06:08:37;122.47;;;6.00;;
4274;SDS011;2151;50.988;11.068;2022-10-16T06:11:04;122.27;;;6.10;;
4274;SDS011;2151;50.988;11.068;2022-10-16T06:13:31;122.43;;;5.97;;
4274;SDS011;2151;50.988;11.068;2022-10-16T06:15:58;122.80;;;5.83;;
4274;SDS011;2151;50.988;11.068;2022-10-16T06:18:25;122.00;;;5.47;;
4274;SDS011;2151;50.988;11.068;2022-10-16T06:20:52;121.70;;;5.50;;
4274;SDS011;2151;50.988;11.068;2022-10-16T06:23:18;123.10;;;6.03;;
4274;SDS011;2151;50.988;11.068;2022-10-16T06:25:45;122.17;;;6.40;;
4274;SDS011;2151;50.988;11.068;2022-10-16T06:28:12;123.50;;;6.53;;
4274;SDS011;2151;50.988;11.068;2022-10-16T06:30:39;122.53;;;6.27;;
4274;SDS011;2151;50.988;11.068;2022-10-16T06:33:05;121.17;;;6.10;;
4274;SDS011;2151;50.988;11.068;2022-10-16T06:35:32;122.20;;;6.30;;
4274;SDS011;2151;50.988;11.068;2022-10-16T06:37:58;122.50;;;6.33;;
4274;SDS011;2151;50.988;11.068;2022-10-16T06:40:24;122.70;;;6.40;;
4274;SDS011;2151;50.988;11.068;2022-10-16T06:42:51;122.40;;;6.40;;
4274;SDS011;2151;50.988;11.068;2022-10-16T06:45:18;122.40;;;6.37;;
4274;SDS011;2151;50.988;11.068;2022-10-16T06:47:44;122.83;;;6.57;;
4274;SDS011;2151;50.988;11.068;2022-10-16T06:50:10;123.37;;;6.67;;
4274;SDS011;2151;50.988;11.068;2022-10-16T06:52:37;123.40;;;6.47;;
4274;SDS011;2151;50.988;11.068;2022-10-16T06:55:04;123.63;;;6.93;;
4274;SDS011;2151;50.988;11.068;2022-10-16T06:57:30;123.17;;;6.67;;
4274;SDS011;2151;50.988;11.068;2022-10-16T06:59:56;122.60;;;6.67;;
4274;SDS011;2151;50.988;11.068;2022-10-16T07:02:23;123.47;;;7.30;;
4274;SDS011;2151;50.988;11.068;2022-10-16T07:04:50;123.07;;;7.20;;
4274;SDS011;2151;50.988;11.068;2022-10-16T07:07:16;123.57;;;7.80;;
4274;SDS011;2151;50.988;11.068;2022-10-16T07:09:42;124.30;;;9.23;;
4274;SDS011;2151;50.988;11.068;2022-10-16T07:12:09;124.87;;;9.77;;
4274;SDS011;2151;50.988;11.068;2022-10-16T07:14:35;125.30;;;11.30;;
4274;SDS011;2151;50.988;11.068;2022-10-16T07:17:01;125.63;;;11.50;;
4274;SDS011;2151;50.988;11.068;2022-10-16T07:19:28;126.37;;;12.80;;
4274;SDS011;2151;50.988;11.068;2022-10-16T07:21:59;125.77;;;13.00;;
4274;SDS011;2151;50.988;11.068;2022-10-16T07:24:25;125.50;;;12.77;;
4274;SDS011;2151;50.988;11.068;2022-10-16T07:26:52;126.83;;;14.47;;
4274;SDS011;2151;50.988;11.068;2022-10-16T07:29:19;127.70;;;14.97;;
4274;SDS011;2151;50.988;11.068;2022-10-16T07:31:46;127.77;;;15.90;;
4274;SDS011;2151;50.988;11.068;2022-10-16T07:34:13;128.30;;;15.90;;
4274;SDS011;2151;50.988;11.068;2022-10-16T07:36:40;127.43;;;15.83;;
4274;SDS011;2151;50.988;11.068;2022-10-16T07:39:07;128.00;;;15.87;;
4274;SDS011;2151;50.988;11.068;2022-10-16T07:41:34;128.63;;;17.97;;
4274;SDS011;2151;50.988;11.068;2022-10-16T07:44:03;128.03;;;16.47;;
4274;SDS011;2151;50.988;11.068;2022-10-16T07:46:29;130.30;;;17.70;;
4274;SDS011;2151;50.988;11.068;2022-10-16T07:48:56;129.17;;;15.87;;
4274;SDS011;2151;50.988;11.068;2022-10-16T07:51:23;130.33;;;14.83;;
4274;SDS011;2151;50.988;11.068;2022-10-16T07:53:50;129.97;;;13.70;;
4274;SDS011;2151;50.988;11.068;2022-10-16T07:56:17;130.27;;;12.90;;
4274;SDS011;2151;50.988;11.068;2022-10-16T07:58:44;131.30;;;13.37;;
4274;SDS011;2151;50.988;11.068;2022-10-16T08:01:12;131.97;;;13.93;;
4274;SDS011;2151;50.988;11.068;2022-10-16T08:03:43;132.43;;;14.77;;
4274;SDS011;2151;50.988;11.068;2022-10-16T08:06:09;132.10;;;14.60;;
4274;SDS011;2151;50.988;11.068;2022-10-16T08:08:36;131.37;;;14.07;;
4274;SDS011;2151;50.988;11.068;2022-10-16T08:11:02;131.37;;;13.00;;
4274;SDS011;2151;50.988;11.068;2022-10-16T08:13:31;131.47;;;12.07;;
4274;SDS011;2151;50.988;11.068;2022-10-16T08:15:58;130.90;;;11.20;;
4274;SDS011;2151;50.988;11.068;2022-10-16T08:18:24;130.13;;;10.03;;
4274;SDS011;2151;50.988;11.068;2022-10-16T08:20:57;129.40;;;8.87;;
4274;SDS011;2151;50.988;11.068;2022-10-16T08:23:24;128.97;;;7.80;;
4274;SDS011;2151;50.988;11.068;2022-10-16T08:25:52;127.13;;;7.17;;
4274;SDS011;2151;50.988;11.068;2022-10-16T08:28:19;126.70;;;7.57;;
4274;SDS011;2151;50.988;11.068;2022-10-16T08:30:46;125.90;;;7.60;;
4274;SDS011;2151;50.988;11.068;2022-10-16T08:33:12;125.27;;;7.10;;
4274;SDS011;2151;50.988;11.068;2022-10-16T08:35:38;123.93;;;6.80;;
4274;SDS011;2151;50.988;11.068;2022-10-16T08:38:05;122.77;;;6.30;;
4274;SDS011;2151;50.988;11.068;2022-10-16T08:40:33;122.17;;;5.87;;
4274;SDS011;2151;50.988;11.068;2022-10-16T08:51:02;118.90;;;5.20;;
4274;SDS011;2151;50.988;11.068;2022-10-16T08:53:35;119.27;;;4.87;;
4274;SDS011;2151;50.988;11.068;2022-10-16T08:56:02;118.97;;;5.07;;
4274;SDS011;2151;50.988;11.068;2022-10-16T08:58:29;118.03;;;5.10;;
4274;SDS011;2151;50.988;11.068;2022-10-16T09:00:58;117.80;;;5.00;;
4274;SDS011;2151;50.988;11.068;2022-10-16T09:03:51;117.30;;;4.70;;
4274;SDS011;2151;50.988;11.068;2022-10-16T09:06:25;117.50;;;4.80;;
4274;SDS011;2151;50.988;11.068;2022-10-16T09:16:51;117.10;;;4.80;;
4274;SDS011;2151;50.988;11.068;2022-10-16T09:19:21;116.80;;;4.63;;
4274;SDS011;2151;50.988;11.068;2022-10-16T09:21:50;117.27;;;4.73;;
4274;SDS011;2151;50.988;11.068;2022-10-16T09:24:20;116.97;;;4.80;;
4274;SDS011;2151;50.988;11.068;2022-10-16T09:26:53;116.77;;;4.97;;
4274;SDS011;2151;50.988;11.068;2022-10-16T09:29:21;117.20;;;4.97;;
4274;SDS011;2151;50.988;11.068;2022-10-16T09:31:48;116.07;;;4.40;;
4274;SDS011;2151;50.988;11.068;2022-10-16T09:36:45;116.83;;;5.30;;
4274;SDS011;2151;50.988;11.068;2022-10-16T09:39:13;116.17;;;4.90;;
4274;SDS011;2151;50.988;11.068;2022-10-16T09:41:42;116.50;;;5.20;;
4274;SDS011;2151;50.988;11.068;2022-10-16T09:47:00;116.13;;;4.80;;
4274;SDS011;2151;50.988;11.068;2022-10-16T09:49:28;116.23;;;4.93;;
4274;SDS011;2151;50.988;11.068;2022-10-16T09:52:04;116.40;;;5.10;;
4274;SDS011;2151;50.988;11.068;2022-10-16T09:54:32;115.97;;;4.87;;
4274;SDS011;2151;50.988;11.068;2022-10-16T09:57:06;116.57;;;5.33;;
4274;SDS011;2151;50.988;11.068;2022-10-16T09:59:33;116.67;;;5.93;;
4274;SDS011;2151;50.988;11.068;2022-10-16T10:02:02;117.10;;;6.13;;
4274;SDS011;2151;50.988;11.068;2022-10-16T10:04:37;116.60;;;5.20;;
4274;SDS011;2151;50.988;11.068;2022-10-16T10:07:06;116.40;;;5.23;;
4274;SDS011;2151;50.988;11.068;2022-10-16T10:09:42;115.97;;;5.03;;
4274;SDS011;2151;50.988;11.068;2022-10-16T10:12:21;116.27;;;5.10;;
4274;SDS011;2151;50.988;11.068;2022-10-16T10:14:53;115.97;;;4.87;;
4274;SDS011;2151;50.988;11.068;2022-10-16T10:17:21;116.13;;;4.83;;
4274;SDS011;2151;50.988;11.068;2022-10-16T10:19:55;116.37;;;4.80;;
4274;SDS011;2151;50.988;11.068;2022-10-16T10:27:25;115.70;;;4.63;;
4274;SDS011;2151;50.988;11.068;2022-10-16T10:30:03;115.97;;;5.00;;
4274;SDS011;2151;50.988;11.068;2022-10-16T10:35:14;115.47;;;4.60;;
4274;SDS011;2151;50.988;11.068;2022-10-16T10:40:34;114.97;;;4.43;;
4274;SDS011;2151;50.988;11.068;2022-10-16T10:45:50;115.77;;;4.57;;
4274;SDS011;2151;50.988;11.068;2022-10-16T10:50:57;116.10;;;4.80;;
4274;SDS011;2151;50.988;11.068;2022-10-16T10:53:29;116.67;;;4.97;;
4274;SDS011;2151;50.988;11.068;2022-10-16T10:56:04;115.70;;;5.00;;
4274;SDS011;2151;50.988;11.068;2022-10-16T11:01:17;116.80;;;5.17;;
4274;SDS011;2151;50.988;11.068;2022-10-16T11:06:24;117.27;;;5.47;;
4274;SDS011;2151;50.988;11.068;2022-10-16T11:11:35;117.77;;;6.00;;
4274;SDS011;2151;50.988;11.068;2022-10-16T11:14:06;117.57;;;5.70;;
4274;SDS011;2151;50.988;11.068;2022-10-16T11:16:40;117.30;;;4.90;;
4274;SDS011;2151;50.988;11.068;2022-10-16T11:19:14;117.37;;;5.67;;
4274;SDS011;2151;50.988;11.068;2022-10-16T11:21:50;117.03;;;5.50;;
4274;SDS011;2151;50.988;11.068;2022-10-16T11:24:25;118.20;;;6.00;;
4274;SDS011;2151;50.988;11.068;2022-10-16T11:26:57;118.17;;;5.67;;
4274;SDS011;2151;50.988;11.068;2022-10-16T11:29:27;117.87;;;5.37;;
4274;SDS011;2151;50.988;11.068;2022-10-16T11:31:57;118.07;;;5.43;;
4274;SDS011;2151;50.988;11.068;2022-10-16T11:34:28;118.10;;;4.87;;
4274;SDS011;2151;50.988;11.068;2022-10-16T11:37:13;118.17;;;5.23;;
4274;SDS011;2151;50.988;11.068;2022-10-16T11:39:40;118.87;;;6.00;;
4274;SDS011;2151;50.988;11.068;2022-10-16T11:42:13;118.17;;;5.43;;
4274;SDS011;2151;50.988;11.068;2022-10-16T11:44:53;117.63;;;4.40;;
4274;SDS011;2151;50.988;11.068;2022-10-16T11:47:34;117.80;;;4.73;;
4274;SDS011;2151;50.988;11.068;2022-10-16T11:50:26;118.07;;;4.87;;
4274;SDS011;2151;50.988;11.068;2022-10-16T11:53:03;117.23;;;5.03;;
4274;SDS011;2151;50.988;11.068;2022-10-16T11:55:35;116.97;;;4.80;;
4274;SDS011;2151;50.988;11.068;2022-10-16T11:58:04;117.17;;;4.50;;
4274;SDS011;2151;50.988;11.068;2022-10-16T12:00:40;117.70;;;4.80;;
4274;SDS011;2151;50.988;11.068;2022-10-16T12:05:52;118.17;;;5.10;;
4274;SDS011;2151;50.988;11.068;2022-10-16T12:08:21;117.37;;;4.63;;
4274;SDS011;2151;50.988;11.068;2022-10-16T12:10:51;117.40;;;4.83;;
4274;SDS011;2151;50.988;11.068;2022-10-16T12:13:38;117.97;;;4.90;;
4274;SDS011;2151;50.988;11.068;2022-10-16T12:18:41;117.87;;;4.67;;
4274;SDS011;2151;50.988;11.068;2022-10-16T12:21:08;116.93;;;4.87;;
4274;SDS011;2151;50.988;11.068;2022-10-16T12:23:38;117.17;;;4.73;;
4274;SDS011;2151;50.988;11.068;2022-10-16T12:26:05;117.37;;;4.80;;
4274;SDS011;2151;50.988;11.068;2022-10-16T12:28:32;117.37;;;4.93;;
4274;SDS011;2151;50.988;11.068;2022-10-16T12:31:00;118.00;;;5.10;;
4274;SDS011;2151;50.988;11.068;2022-10-16T12:33:32;117.37;;;5.00;;
4274;SDS011;2151;50.988;11.068;2022-10-16T12:35:59;117.17;;;4.87;;
4274;SDS011;2151;50.988;11.068;2022-10-16T12:45:58;116.00;;;4.60;;
4274;SDS011;2151;50.988;11.068;2022-10-16T12:48:25;116.20;;;4.63;;
4274;SDS011;2151;50.988;11.068;2022-10-16T12:51:11;116.23;;;4.60;;
4274;SDS011;2151;50.988;11.068;2022-10-16T12:53:40;116.90;;;5.27;;
4274;SDS011;2151;50.988;11.068;2022-10-16T12:56:15;115.77;;;5.13;;
4274;SDS011;2151;50.988;11.068;2022-10-16T12:58:51;116.43;;;4.77;;
4274;SDS011;2151;50.988;11.068;2022-10-16T13:01:36;116.37;;;4.80;;
4274;SDS011;2151;50.988;11.068;2022-10-16T13:04:18;116.40;;;4.83;;
4274;SDS011;2151;50.988;11.068;2022-10-16T13:07:08;116.17;;;4.60;;
4274;SDS011;2151;50.988;11.068;2022-10-16T13:09:54;116.13;;;4.77;;
4274;SDS011;2151;50.988;11.068;2022-10-16T13:15:15;116.77;;;5.03;;
4274;SDS011;2151;50.988;11.068;2022-10-16T13:23:17;117.13;;;5.17;;
4274;SDS011;2151;50.988;11.068;2022-10-16T13:28:21;117.10;;;5.67;;
4274;SDS011;2151;50.988;11.068;2022-10-16T13:30:53;116.90;;;5.57;;
4274;SDS011;2151;50.988;11.068;2022-10-16T13:33:31;116.50;;;5.03;;
4274;SDS011;2151;50.988;11.068;2022-10-16T13:35:59;116.57;;;5.70;;
4274;SDS011;2151;50.988;11.068;2022-10-16T13:38:29;116.30;;;5.20;;
4274;SDS011;2151;50.988;11.068;2022-10-16T13:40:58;116.50;;;5.50;;
4274;SDS011;2151;50.988;11.068;2022-10-16T13:43:28;116.33;;;5.40;;
4274;SDS011;2151;50.988;11.068;2022-10-16T13:48:30;116.27;;;5.10;;
4274;SDS011;2151;50.988;11.068;2022-10-16T13:51:02;115.90;;;4.87;;
4274;SDS011;2151;50.988;11.068;2022-10-16T13:53:31;115.90;;;4.87;;
4274;SDS011;2151;50.988;11.068;2022-10-16T13:55:59;116.10;;;4.83;;
4274;SDS011;2151;50.988;11.068;2022-10-16T13:58:26;115.90;;;4.87;;
4274;SDS011;2151;50.988;11.068;2022-10-16T14:00:53;115.47;;;4.90;;
4274;SDS011;2151;50.988;11.068;2022-10-16T14:03:20;115.70;;;5.10;;
4274;SDS011;2151;50.988;11.068;2022-10-16T14:05:47;115.90;;;4.83;;
4274;SDS011;2151;50.988;11.068;2022-10-16T14:08:15;115.60;;;4.80;;
4274;SDS011;2151;50.988;11.068;2022-10-16T14:10:42;114.40;;;4.80;;
4274;SDS011;2151;50.988;11.068;2022-10-16T14:13:12;115.80;;;5.00;;
4274;SDS011;2151;50.988;11.068;2022-10-16T14:15:40;115.30;;;4.60;;
4274;SDS011;2151;50.988;11.068;2022-10-16T14:18:19;116.37;;;4.60;;
4274;SDS011;2151;50.988;11.068;2022-10-16T14:20:46;115.70;;;4.60;;
4274;SDS011;2151;50.988;11.068;2022-10-16T14:25:48;115.47;;;4.60;;
4274;SDS011;2151;50.988;11.068;2022-10-16T14:28:15;115.37;;;4.67;;
4274;SDS011;2151;50.988;11.068;2022-10-16T14:33:34;115.90;;;4.90;;
4274;SDS011;2151;50.988;11.068;2022-10-16T14:38:48;115.70;;;4.30;;
4274;SDS011;2151;50.988;11.068;2022-10-16T14:41:15;116.17;;;4.90;;
4274;SDS011;2151;50.988;11.068;2022-10-16T14:43:42;114.87;;;4.60;;
4274;SDS011;2151;50.988;11.068;2022-10-16T14:46:17;116.67;;;5.20;;
4274;SDS011;2151;50.988;11.068;2022-10-16T14:48:53;115.97;;;4.77;;
4274;SDS011;2151;50.988;11.068;2022-10-16T14:51:21;115.60;;;4.73;;
4274;SDS011;2151;50.988;11.068;2022-10-16T14:53:49;115.57;;;4.73;;
4274;SDS011;2151;50.988;11.068;2022-10-16T14:56:16;115.20;;;4.63;;
4274;SDS011;2151;50.988;11.068;2022-10-16T14:58:44;115.70;;;4.47;;
4274;SDS011;2151;50.988;11.068;2022-10-16T15:01:10;115.50;;;4.40;;
4274;SDS011;2151;50.988;11.068;2022-10-16T15:03:38;115.40;;;4.50;;
4274;SDS011;2151;50.988;11.068;2022-10-16T15:06:09;115.80;;;4.50;;
4274;SDS011;2151;50.988;11.068;2022-10-16T15:08:36;115.70;;;4.77;;
4274;SDS011;2151;50.988;11.068;2022-10-16T15:11:03;116.37;;;4.90;;
4274;SDS011;2151;50.988;11.068;2022-10-16T15:13:30;115.50;;;4.77;;
4274;SDS011;2151;50.988;11.068;2022-10-16T15:15:56;115.60;;;4.47;;
4274;SDS011;2151;50.988;11.068;2022-10-16T15:18:22;116.07;;;4.73;;
4274;SDS011;2151;50.988;11.068;2022-10-16T15:20:49;115.70;;;4.70;;
4274;SDS011;2151;50.988;11.068;2022-10-16T15:23:17;116.60;;;5.10;;
4274;SDS011;2151;50.988;11.068;2022-10-16T15:28:11;115.97;;;4.63;;
4274;SDS011;2151;50.988;11.068;2022-10-16T15:30:38;116.13;;;4.70;;
4274;SDS011;2151;50.988;11.068;2022-10-16T15:33:05;116.33;;;4.90;;
4274;SDS011;2151;50.988;11.068;2022-10-16T15:35:31;115.60;;;4.53;;
4274;SDS011;2151;50.988;11.068;2022-10-16T15:37:57;116.20;;;4.70;;
4274;SDS011;2151;50.988;11.068;2022-10-16T15:40:24;116.30;;;4.73;;
4274;SDS011;2151;50.988;11.068;2022-10-16T15:42:50;115.97;;;4.70;;
4274;SDS011;2151;50.988;11.068;2022-10-16T15:45:17;115.77;;;4.73;;
4274;SDS011;2151;50.988;11.068;2022-10-16T15:47:45;116.30;;;4.70;;
4274;SDS011;2151;50.988;11.068;2022-10-16T15:50:12;116.47;;;4.73;;
4274;SDS011;2151;50.988;11.068;2022-10-16T15:52:39;116.33;;;4.67;;
4274;SDS011;2151;50.988;11.068;2022-10-16T15:55:08;116.70;;;5.00;;
4274;SDS011;2151;50.988;11.068;2022-10-16T15:57:35;116.30;;;4.93;;
4274;SDS011;2151;50.988;11.068;2022-10-16T16:00:08;116.77;;;4.53;;
4274;SDS011;2151;50.988;11.068;2022-10-16T16:02:36;116.67;;;5.03;;
4274;SDS011;2151;50.988;11.068;2022-10-16T16:05:02;116.57;;;4.60;;
4274;SDS011;2151;50.988;11.068;2022-10-16T16:07:33;116.70;;;4.83;;
4274;SDS011;2151;50.988;11.068;2022-10-16T16:10:00;117.20;;;5.00;;
4274;SDS011;2151;50.988;11.068;2022-10-16T16:12:27;116.60;;;4.73;;
4274;SDS011;2151;50.988;11.068;2022-10-16T16:14:54;116.80;;;4.87;;
4274;SDS011;2151;50.988;11.068;2022-10-16T16:17:20;117.07;;;5.27;;
4274;SDS011;2151;50.988;11.068;2022-10-16T16:19:46;117.40;;;5.33;;
4274;SDS011;2151;50.988;11.068;2022-10-16T16:22:13;116.57;;;4.97;;